NCAR-RAP Real-Time Weather Data

Output produced by METARs form (08 May 2021  01:16 UTC)
found at http://weather.rap.ucar.edu/surface/
 
KMSP 080053Z 02006KT 10SM FEW060 12/M04 A3007 RMK AO2 SLP188 T01171044
KMSP 072353Z 07007KT 10SM FEW070 13/M05 A3007 RMK AO2 SLP186 T01281050 10144 20111 56010
KMSP 072253Z 03010G15KT 10SM SCT070 14/M03 A3007 RMK AO2 SLP189 T01391033
KMSP 072153Z 36007G17KT 280V020 10SM SCT070 12/M04 A3009 RMK AO2 SLP193 T01221044
KMSP 072053Z 03008KT 10SM SCT070 13/M04 A3010 RMK AO2 SLP196 T01331039 56012
KMSP 071953Z 36007KT 340V040 10SM SCT060 14/M02 A3011 RMK AO2 SLP198 T01391022
KMSP 071853Z 35013G20KT 10SM SCT060 13/M03 A3012 RMK AO2 SLP203 T01281028
KMSP 071753Z 36010G22KT 10SM BKN060 12/M03 A3013 RMK AO2 SLP207 T01171028 10128 20050 58002
KMSP 071653Z 01011G20KT 10SM BKN060 12/M02 A3014 RMK AO2 SLP209 T01221022
KMSP 071553Z 02007G23KT 10SM BKN060 11/M03 A3014 RMK AO2 SLP209 T01111028
KMSP 071453Z 35010G19KT 10SM FEW050 09/M02 A3014 RMK AO2 SLP209 T00941022 50004
KMSP 071353Z 35010KT 10SM CLR 08/00 A3014 RMK AO2 SLP209 T00830000
KMSP 071253Z 36008KT 10SM CLR 07/01 A3013 RMK AO2 SLP208 T00670006
KMSP 071153Z 33006KT 10SM CLR 05/01 A3013 RMK AO2 SLP205 T00500011 10083 20039 53019
KMSP 071053Z 34005KT 10SM CLR 04/01 A3010 RMK AO2 SLP195 T00390011